sensor_id;sensor_type;location;lat;lon;timestamp;pressure;altitude;pressure_sealevel;temperature;humidity
45369;BME280;51342;55.250;37.668;2023-01-28T00:03:51;100255.28;;;-2.04;80.33
45369;BME280;51342;55.250;37.668;2023-01-28T00:06:23;100254.22;;;-2.06;80.63
45369;BME280;51342;55.250;37.668;2023-01-28T00:08:54;100260.34;;;-2.04;80.44
45369;BME280;51342;55.250;37.668;2023-01-28T00:11:25;100256.22;;;-2.04;80.56
45369;BME280;51342;55.250;37.668;2023-01-28T00:13:57;100250.41;;;-2.03;80.38
45369;BME280;51342;55.250;37.668;2023-01-28T00:16:28;100250.75;;;-2.00;80.46
45369;BME280;51342;55.250;37.668;2023-01-28T00:19:00;100255.28;;;-1.97;80.50
45369;BME280;51342;55.250;37.668;2023-01-28T00:21:31;100254.69;;;-1.95;80.71
45369;BME280;51342;55.250;37.668;2023-01-28T00:24:03;100252.34;;;-1.93;80.60
45369;BME280;51342;55.250;37.668;2023-01-28T00:26:36;100257.41;;;-1.93;80.29
45369;BME280;51342;55.250;37.668;2023-01-28T00:29:08;100248.91;;;-1.94;80.52
45369;BME280;51342;55.250;37.668;2023-01-28T00:31:40;100256.72;;;-1.92;80.37
45369;BME280;51342;55.250;37.668;2023-01-28T00:34:12;100254.16;;;-1.92;80.39
45369;BME280;51342;55.250;37.668;2023-01-28T00:36:45;100250.00;;;-1.92;80.41
45369;BME280;51342;55.250;37.668;2023-01-28T00:39:27;100245.47;;;-1.94;80.45
45369;BME280;51342;55.250;37.668;2023-01-28T00:41:58;100251.06;;;-1.90;80.53
45369;BME280;51342;55.250;37.668;2023-01-28T00:44:29;100250.16;;;-1.90;80.55
45369;BME280;51342;55.250;37.668;2023-01-28T00:47:01;100254.16;;;-1.92;80.75
45369;BME280;51342;55.250;37.668;2023-01-28T00:49:32;100252.53;;;-1.92;80.67
45369;BME280;51342;55.250;37.668;2023-01-28T00:52:04;100254.34;;;-1.91;80.81
45369;BME280;51342;55.250;37.668;2023-01-28T00:54:35;100253.44;;;-1.91;80.55
45369;BME280;51342;55.250;37.668;2023-01-28T00:57:07;100254.88;;;-1.93;80.66
45369;BME280;51342;55.250;37.668;2023-01-28T00:59:39;100255.25;;;-1.90;80.82
45369;BME280;51342;55.250;37.668;2023-01-28T01:02:10;100251.81;;;-1.91;80.64
45369;BME280;51342;55.250;37.668;2023-01-28T01:04:44;100250.16;;;-1.90;80.95
45369;BME280;51342;55.250;37.668;2023-01-28T01:07:27;100252.53;;;-1.92;80.69
45369;BME280;51342;55.250;37.668;2023-01-28T01:10:05;100255.97;;;-1.91;80.96
45369;BME280;51342;55.250;37.668;2023-01-28T01:12:37;100256.88;;;-1.91;80.92
45369;BME280;51342;55.250;37.668;2023-01-28T01:15:09;100266.44;;;-1.88;80.83
45369;BME280;51342;55.250;37.668;2023-01-28T01:17:42;100258.84;;;-1.88;80.76
45369;BME280;51342;55.250;37.668;2023-01-28T01:20:18;100263.75;;;-1.90;80.71
45369;BME280;51342;55.250;37.668;2023-01-28T01:22:50;100262.28;;;-1.88;80.90
45369;BME280;51342;55.250;37.668;2023-01-28T01:25:21;100255.41;;;-1.89;80.80
45369;BME280;51342;55.250;37.668;2023-01-28T01:27:53;100251.22;;;-1.88;80.89
45369;BME280;51342;55.250;37.668;2023-01-28T01:30:24;100257.41;;;-1.86;80.85
45369;BME280;51342;55.250;37.668;2023-01-28T01:32:56;100253.06;;;-1.87;80.85
45369;BME280;51342;55.250;37.668;2023-01-28T01:35:27;100247.78;;;-1.89;80.79
45369;BME280;51342;55.250;37.668;2023-01-28T01:37:59;100249.78;;;-1.86;80.89
45369;BME280;51342;55.250;37.668;2023-01-28T01:40:30;100247.78;;;-1.89;80.87
45369;BME280;51342;55.250;37.668;2023-01-28T01:43:15;100258.84;;;-1.88;81.06
45369;BME280;51342;55.250;37.668;2023-01-28T01:45:59;100250.91;;;-1.91;80.83
45369;BME280;51342;55.250;37.668;2023-01-28T01:48:32;100252.88;;;-1.89;80.68
45369;BME280;51342;55.250;37.668;2023-01-28T01:51:11;100253.97;;;-1.87;80.92
45369;BME280;51342;55.250;37.668;2023-01-28T01:53:47;100247.63;;;-1.90;81.08
45369;BME280;51342;55.250;37.668;2023-01-28T01:56:23;100246.72;;;-1.91;80.86
45369;BME280;51342;55.250;37.668;2023-01-28T01:58:57;100245.47;;;-1.87;80.98
45369;BME280;51342;55.250;37.668;2023-01-28T02:01:30;100241.28;;;-1.87;80.98
45369;BME280;51342;55.250;37.668;2023-01-28T02:04:30;100249.09;;;-1.92;80.74
45369;BME280;51342;55.250;37.668;2023-01-28T02:07:02;100252.69;;;-1.90;81.08
45369;BME280;51342;55.250;37.668;2023-01-28T02:09:35;100252.13;;;-1.88;81.01
45369;BME280;51342;55.250;37.668;2023-01-28T02:12:28;100243.13;;;-1.93;81.12
45369;BME280;51342;55.250;37.668;2023-01-28T02:15:06;100237.47;;;-1.90;81.00
45369;BME280;51342;55.250;37.668;2023-01-28T02:17:39;100244.53;;;-1.88;81.15
45369;BME280;51342;55.250;37.668;2023-01-28T02:20:13;100243.13;;;-1.93;81.28
45369;BME280;51342;55.250;37.668;2023-01-28T02:25:56;100237.53;;;-2.04;81.11
45369;BME280;51342;55.250;37.668;2023-01-28T02:28:44;100258.88;;;-1.95;81.56
45369;BME280;51342;55.250;37.668;2023-01-28T02:31:31;100255.81;;;-2.00;81.38
45369;BME280;51342;55.250;37.668;2023-01-28T02:36:46;100255.44;;;-1.96;81.55
45369;BME280;51342;55.250;37.668;2023-01-28T02:39:23;100259.44;;;-1.98;81.42
45369;BME280;51342;55.250;37.668;2023-01-28T02:42:06;100252.00;;;-1.96;81.56
45369;BME280;51342;55.250;37.668;2023-01-28T02:44:40;100259.94;;;-1.93;81.52
45369;BME280;51342;55.250;37.668;2023-01-28T02:47:12;100259.94;;;-1.93;81.54
45369;BME280;51342;55.250;37.668;2023-01-28T02:50:14;100261.78;;;-1.99;81.42
45369;BME280;51342;55.250;37.668;2023-01-28T02:53:16;100263.25;;;-2.01;81.51
45369;BME280;51342;55.250;37.668;2023-01-28T02:56:33;100261.81;;;-2.06;81.61
45369;BME280;51342;55.250;37.668;2023-01-28T02:59:18;100264.72;;;-2.03;81.85
45369;BME280;51342;55.250;37.668;2023-01-28T03:07:41;100264.50;;;-1.98;82.07
45369;BME280;51342;55.250;37.668;2023-01-28T03:10:15;100268.13;;;-1.96;81.89
45369;BME280;51342;55.250;37.668;2023-01-28T03:12:51;100266.47;;;-1.95;82.03
45369;BME280;51342;55.250;37.668;2023-01-28T03:15:46;100274.09;;;-1.95;81.93
45369;BME280;51342;55.250;37.668;2023-01-28T03:18:43;100276.63;;;-1.95;82.01
45369;BME280;51342;55.250;37.668;2023-01-28T03:21:40;100277.34;;;-1.96;82.12
45369;BME280;51342;55.250;37.668;2023-01-28T03:24:34;100272.28;;;-1.96;82.10
45369;BME280;51342;55.250;37.668;2023-01-28T03:27:53;100280.78;;;-1.96;82.07
45369;BME280;51342;55.250;37.668;2023-01-28T03:33:50;100286.03;;;-1.94;82.20
45369;BME280;51342;55.250;37.668;2023-01-28T03:36:41;100280.44;;;-1.92;82.41
45369;BME280;51342;55.250;37.668;2023-01-28T03:39:55;100286.22;;;-1.93;82.31
45369;BME280;51342;55.250;37.668;2023-01-28T03:42:29;100282.41;;;-1.89;82.29
45369;BME280;51342;55.250;37.668;2023-01-28T03:45:30;100286.72;;;-1.88;82.35
45369;BME280;51342;55.250;37.668;2023-01-28T03:48:01;100285.31;;;-1.86;82.37
45369;BME280;51342;55.250;37.668;2023-01-28T03:50:33;100287.09;;;-1.85;82.30
45369;BME280;51342;55.250;37.668;2023-01-28T03:53:06;100285.31;;;-1.86;82.21
45369;BME280;51342;55.250;37.668;2023-01-28T03:56:03;100292.34;;;-1.83;82.60
45369;BME280;51342;55.250;37.668;2023-01-28T03:58:35;100293.44;;;-1.81;82.51
45369;BME280;51342;55.250;37.668;2023-01-28T04:01:27;100281.28;;;-1.84;82.55
45369;BME280;51342;55.250;37.668;2023-01-28T04:03:59;100285.25;;;-1.79;82.71
45369;BME280;51342;55.250;37.668;2023-01-28T04:06:32;100283.09;;;-1.76;82.73
45369;BME280;51342;55.250;37.668;2023-01-28T04:09:29;100286.91;;;-1.79;82.79
45369;BME280;51342;55.250;37.668;2023-01-28T04:12:20;100281.81;;;-1.79;82.73
45369;BME280;51342;55.250;37.668;2023-01-28T04:14:56;100279.63;;;-1.76;82.54
45369;BME280;51342;55.250;37.668;2023-01-28T04:17:31;100274.38;;;-1.78;82.73
45369;BME280;51342;55.250;37.668;2023-01-28T04:20:03;100287.59;;;-1.73;82.80
45369;BME280;51342;55.250;37.668;2023-01-28T04:22:34;100287.59;;;-1.73;82.73
45369;BME280;51342;55.250;37.668;2023-01-28T04:25:06;100282.34;;;-1.75;82.79
45369;BME280;51342;55.250;37.668;2023-01-28T04:27:38;100283.09;;;-1.76;82.72
45369;BME280;51342;55.250;37.668;2023-01-28T04:30:19;100285.97;;;-1.73;82.95
45369;BME280;51342;55.250;37.668;2023-01-28T04:33:09;100282.34;;;-1.75;82.83
45369;BME280;51342;55.250;37.668;2023-01-28T04:36:00;100287.94;;;-1.70;82.71
45369;BME280;51342;55.250;37.668;2023-01-28T04:38:50;100292.66;;;-1.73;82.81
45369;BME280;51342;55.250;37.668;2023-01-28T04:41:50;100294.13;;;-1.75;83.06
45369;BME280;51342;55.250;37.668;2023-01-28T04:44:27;100291.19;;;-1.71;82.96
45369;BME280;51342;55.250;37.668;2023-01-28T04:46:59;100299.00;;;-1.70;83.04
45369;BME280;51342;55.250;37.668;2023-01-28T04:49:53;100299.00;;;-1.70;82.84
45369;BME280;51342;55.250;37.668;2023-01-28T04:52:44;100299.72;;;-1.71;83.05
45369;BME280;51342;55.250;37.668;2023-01-28T04:55:40;100301.72;;;-1.68;83.19
45369;BME280;51342;55.250;37.668;2023-01-28T04:58:12;100300.06;;;-1.68;82.91
45369;BME280;51342;55.250;37.668;2023-01-28T05:00:45;100304.09;;;-1.70;83.15
45369;BME280;51342;55.250;37.668;2023-01-28T05:03:19;100308.75;;;-1.66;83.14
45369;BME280;51342;55.250;37.668;2023-01-28T05:05:51;100312.19;;;-1.65;83.14
45369;BME280;51342;55.250;37.668;2023-01-28T05:08:28;100309.75;;;-1.87;83.21
45369;BME280;51342;55.250;37.668;2023-01-28T05:11:01;100303.16;;;-1.70;83.43
45369;BME280;51342;55.250;37.668;2023-01-28T05:13:33;100313.09;;;-1.65;83.10
45369;BME280;51342;55.250;37.668;2023-01-28T05:16:05;100315.81;;;-1.63;83.07
45369;BME280;51342;55.250;37.668;2023-01-28T05:18:37;100312.03;;;-1.67;83.03
45369;BME280;51342;55.250;37.668;2023-01-28T05:21:19;100316.19;;;-1.67;83.00
45369;BME280;51342;55.250;37.668;2023-01-28T05:23:57;100320.69;;;-1.65;83.21
45369;BME280;51342;55.250;37.668;2023-01-28T05:26:29;100320.69;;;-1.65;83.26
45369;BME280;51342;55.250;37.668;2023-01-28T05:29:01;100308.75;;;-1.66;83.18
45369;BME280;51342;55.250;37.668;2023-01-28T05:31:33;100311.66;;;-1.63;83.01
45369;BME280;51342;55.250;37.668;2023-01-28T05:34:05;100314.19;;;-1.63;83.24
45369;BME280;51342;55.250;37.668;2023-01-28T05:36:36;100311.13;;;-1.67;83.06
45369;BME280;51342;55.250;37.668;2023-01-28T05:39:18;100312.03;;;-1.67;82.91
45369;BME280;51342;55.250;37.668;2023-01-28T05:41:49;100313.66;;;-1.67;82.92
45369;BME280;51342;55.250;37.668;2023-01-28T05:44:21;100311.84;;;-1.68;83.03
45369;BME280;51342;55.250;37.668;2023-01-28T05:47:21;100305.88;;;-1.69;83.19
45369;BME280;51342;55.250;37.668;2023-01-28T05:50:04;100305.69;;;-1.70;83.30
45369;BME280;51342;55.250;37.668;2023-01-28T05:52:47;100307.69;;;-1.68;83.28
45369;BME280;51342;55.250;37.668;2023-01-28T05:55:26;100306.78;;;-1.68;83.28
45369;BME280;51342;55.250;37.668;2023-01-28T05:57:58;100307.31;;;-1.71;83.42
45369;BME280;51342;55.250;37.668;2023-01-28T06:00:31;100303.72;;;-1.73;83.45
45369;BME280;51342;55.250;37.668;2023-01-28T06:03:04;100308.78;;;-1.73;83.08
45369;BME280;51342;55.250;37.668;2023-01-28T06:05:36;100311.50;;;-1.71;83.36
45369;BME280;51342;55.250;37.668;2023-01-28T06:08:07;100310.44;;;-1.73;83.32
45369;BME280;51342;55.250;37.668;2023-01-28T06:10:40;100318.38;;;-1.70;83.31
45369;BME280;51342;55.250;37.668;2023-01-28T06:13:11;100319.84;;;-1.72;83.38
45369;BME280;51342;55.250;37.668;2023-01-28T06:16:02;100321.13;;;-1.76;83.31
45369;BME280;51342;55.250;37.668;2023-01-28T06:18:51;100330.91;;;-1.79;83.29
45369;BME280;51342;55.250;37.668;2023-01-28T06:21:22;100337.25;;;-1.75;83.07
45369;BME280;51342;55.250;37.668;2023-01-28T06:23:54;100337.97;;;-1.76;83.27
45369;BME280;51342;55.250;37.668;2023-01-28T06:26:25;100342.13;;;-1.77;83.38
45369;BME280;51342;55.250;37.668;2023-01-28T06:28:57;100338.34;;;-1.80;83.37
45369;BME280;51342;55.250;37.668;2023-01-28T06:31:28;100340.34;;;-1.85;83.26
45369;BME280;51342;55.250;37.668;2023-01-28T06:34:00;100336.91;;;-1.85;83.20
45369;BME280;51342;55.250;37.668;2023-01-28T06:36:31;100338.56;;;-1.86;83.05
45369;BME280;51342;55.250;37.668;2023-01-28T06:39:03;100330.38;;;-1.83;83.34
45369;BME280;51342;55.250;37.668;2023-01-28T06:41:35;100329.31;;;-1.85;83.12
45369;BME280;51342;55.250;37.668;2023-01-28T06:44:06;100336.03;;;-1.86;83.20
45369;BME280;51342;55.250;37.668;2023-01-28T06:46:37;100344.38;;;-1.87;83.25
45369;BME280;51342;55.250;37.668;2023-01-28T06:49:09;100346.69;;;-1.89;83.34
45369;BME280;51342;55.250;37.668;2023-01-28T06:51:40;100349.78;;;-1.91;83.30
45369;BME280;51342;55.250;37.668;2023-01-28T06:54:12;100336.41;;;-1.97;83.28
45369;BME280;51342;55.250;37.668;2023-01-28T06:56:43;100348.34;;;-1.96;83.05
45369;BME280;51342;55.250;37.668;2023-01-28T06:59:14;100347.63;;;-1.95;83.17
45369;BME280;51342;55.250;37.668;2023-01-28T07:01:46;100345.81;;;-1.96;83.26
45369;BME280;51342;55.250;37.668;2023-01-28T07:04:17;100350.16;;;-1.95;83.16
45369;BME280;51342;55.250;37.668;2023-01-28T07:06:48;100350.16;;;-1.95;83.12
45369;BME280;51342;55.250;37.668;2023-01-28T07:09:20;100350.72;;;-1.98;83.15
45369;BME280;51342;55.250;37.668;2023-01-28T07:11:51;100355.41;;;-2.01;83.27
45369;BME280;51342;55.250;37.668;2023-01-28T07:14:23;100358.31;;;-2.05;82.93
45369;BME280;51342;55.250;37.668;2023-01-28T07:16:54;100362.50;;;-2.05;83.25
45369;BME280;51342;55.250;37.668;2023-01-28T07:19:25;100366.50;;;-2.07;83.04
45369;BME280;51342;55.250;37.668;2023-01-28T07:21:57;100357.44;;;-2.13;83.01
45369;BME280;51342;55.250;37.668;2023-01-28T07:24:30;100370.50;;;-2.09;83.20
45369;BME280;51342;55.250;37.668;2023-01-28T07:27:03;100372.09;;;-2.10;82.94
45369;BME280;51342;55.250;37.668;2023-01-28T07:29:34;100366.84;;;-2.11;83.10
45369;BME280;51342;55.250;37.668;2023-01-28T07:32:06;100363.78;;;-2.09;83.36
45369;BME280;51342;55.250;37.668;2023-01-28T07:34:37;100371.19;;;-2.10;83.12
45369;BME280;51342;55.250;37.668;2023-01-28T07:37:11;100358.50;;;-2.10;82.97
45369;BME280;51342;55.250;37.668;2023-01-28T07:39:43;100355.81;;;-2.12;83.42
45369;BME280;51342;55.250;37.668;2023-01-28T07:42:14;100361.03;;;-2.10;82.85
45369;BME280;51342;55.250;37.668;2023-01-28T07:44:52;100361.44;;;-2.15;83.11
45369;BME280;51342;55.250;37.668;2023-01-28T07:47:23;100366.69;;;-2.20;83.01
45369;BME280;51342;55.250;37.668;2023-01-28T07:49:54;100367.41;;;-2.14;83.03
45369;BME280;51342;55.250;37.668;2023-01-28T07:52:26;100355.66;;;-2.21;82.80
45369;BME280;51342;55.250;37.668;2023-01-28T07:54:57;100364.69;;;-2.23;82.89
45369;BME280;51342;55.250;37.668;2023-01-28T07:57:28;100360.50;;;-2.22;83.06
45369;BME280;51342;55.250;37.668;2023-01-28T08:00:00;100364.16;;;-2.20;82.88
45369;BME280;51342;55.250;37.668;2023-01-28T08:02:31;100361.78;;;-2.19;82.79
45369;BME280;51342;55.250;37.668;2023-01-28T08:05:03;100364.16;;;-2.20;82.68
45369;BME280;51342;55.250;37.668;2023-01-28T08:07:35;100362.88;;;-2.24;82.82
45369;BME280;51342;55.250;37.668;2023-01-28T08:10:06;100371.75;;;-2.20;82.94
45369;BME280;51342;55.250;37.668;2023-01-28T08:12:38;100371.94;;;-2.26;82.49
45369;BME280;51342;55.250;37.668;2023-01-28T08:15:10;100373.75;;;-2.25;82.58
45369;BME280;51342;55.250;37.668;2023-01-28T08:17:41;100373.38;;;-2.28;82.52
45369;BME280;51342;55.250;37.668;2023-01-28T08:20:13;100377.34;;;-2.23;82.61
45369;BME280;51342;55.250;37.668;2023-01-28T08:22:45;100377.91;;;-2.18;82.40
45369;BME280;51342;55.250;37.668;2023-01-28T08:25:17;100385.50;;;-2.18;82.20
45369;BME280;51342;55.250;37.668;2023-01-28T08:27:48;100381.34;;;-2.18;82.27
45369;BME280;51342;55.250;37.668;2023-01-28T08:30:20;100381.34;;;-2.18;82.41
45369;BME280;51342;55.250;37.668;2023-01-28T08:32:54;100380.25;;;-2.20;82.17
45369;BME280;51342;55.250;37.668;2023-01-28T08:35:27;100376.09;;;-2.19;82.13
45369;BME280;51342;55.250;37.668;2023-01-28T08:38:01;100374.47;;;-2.19;82.09
45369;BME280;51342;55.250;37.668;2023-01-28T08:40:33;100373.03;;;-2.24;82.44
45369;BME280;51342;55.250;37.668;2023-01-28T08:43:05;100364.34;;;-2.26;82.17
45369;BME280;51342;55.250;37.668;2023-01-28T08:45:38;100358.38;;;-2.26;82.14
45369;BME280;51342;55.250;37.668;2023-01-28T08:48:14;100362.16;;;-2.30;82.00
45369;BME280;51342;55.250;37.668;2023-01-28T08:50:46;100353.09;;;-2.28;81.84
45369;BME280;51342;55.250;37.668;2023-01-28T08:53:18;100360.91;;;-2.26;81.85
45369;BME280;51342;55.250;37.668;2023-01-28T08:55:50;100359.44;;;-2.24;81.98
45369;BME280;51342;55.250;37.668;2023-01-28T08:58:21;100356.75;;;-2.26;81.78
45369;BME280;51342;55.250;37.668;2023-01-28T09:00:53;100358.72;;;-2.23;81.80
45369;BME280;51342;55.250;37.668;2023-01-28T09:03:24;100358.88;;;-2.22;81.59
45369;BME280;51342;55.250;37.668;2023-01-28T09:06:03;100362.34;;;-2.28;81.28
45369;BME280;51342;55.250;37.668;2023-01-28T09:08:34;100360.53;;;-2.29;81.45
45369;BME280;51342;55.250;37.668;2023-01-28T09:11:06;100353.84;;;-2.29;81.46
45369;BME280;51342;55.250;37.668;2023-01-28T09:13:37;100356.75;;;-2.26;81.39
45369;BME280;51342;55.250;37.668;2023-01-28T09:16:09;100360.34;;;-2.24;81.47
45369;BME280;51342;55.250;37.668;2023-01-28T09:18:40;100358.72;;;-2.23;81.17
45369;BME280;51342;55.250;37.668;2023-01-28T09:21:11;100352.00;;;-2.23;81.50
45369;BME280;51342;55.250;37.668;2023-01-28T09:23:43;100344.25;;;-2.24;81.36
45369;BME280;51342;55.250;37.668;2023-01-28T09:26:14;100345.50;;;-2.21;81.16
45369;BME280;51342;55.250;37.668;2023-01-28T09:28:46;100354.03;;;-2.20;81.24
45369;BME280;51342;55.250;37.668;2023-01-28T09:31:18;100349.69;;;-2.21;81.11
45369;BME280;51342;55.250;37.668;2023-01-28T09:33:49;100348.38;;;-2.18;81.12
45369;BME280;51342;55.250;37.668;2023-01-28T09:36:26;100350.19;;;-2.17;80.92
45369;BME280;51342;55.250;37.668;2023-01-28T09:38:58;100350.91;;;-2.18;80.84
45369;BME280;51342;55.250;37.668;2023-01-28T09:41:59;100341.34;;;-2.20;80.85
45369;BME280;51342;55.250;37.668;2023-01-28T09:45:01;100340.44;;;-2.28;80.86
45369;BME280;51342;55.250;37.668;2023-01-28T09:47:42;100346.03;;;-2.23;80.77
45369;BME280;51342;55.250;37.668;2023-01-28T09:52:52;100334.28;;;-2.23;80.68
45369;BME280;51342;55.250;37.668;2023-01-28T09:55:56;100329.38;;;-2.28;80.79
45369;BME280;51342;55.250;37.668;2023-01-28T09:58:27;100327.94;;;-2.19;80.86
45369;BME280;51342;55.250;37.668;2023-01-28T10:01:04;100326.84;;;-2.14;80.68
45369;BME280;51342;55.250;37.668;2023-01-28T10:06:54;100330.84;;;-2.23;80.45
45369;BME280;51342;55.250;37.668;2023-01-28T10:15:27;100325.03;;;-2.15;80.30
45369;BME280;51342;55.250;37.668;2023-01-28T10:18:05;100325.22;;;-2.14;80.28
45369;BME280;51342;55.250;37.668;2023-01-28T10:21:00;100323.59;;;-2.20;80.13
45369;BME280;51342;55.250;37.668;2023-01-28T10:23:44;100323.59;;;-2.20;80.16
45369;BME280;51342;55.250;37.668;2023-01-28T10:26:22;100323.94;;;-2.17;80.34
45369;BME280;51342;55.250;37.668;2023-01-28T10:29:03;100317.81;;;-2.19;80.00
45369;BME280;51342;55.250;37.668;2023-01-28T10:31:39;100310.72;;;-2.22;80.02
45369;BME280;51342;55.250;37.668;2023-01-28T10:34:12;100316.16;;;-2.19;80.03
45369;BME280;51342;55.250;37.668;2023-01-28T10:36:43;100309.44;;;-2.11;80.17
45369;BME280;51342;55.250;37.668;2023-01-28T10:39:18;100311.25;;;-2.10;80.04
45369;BME280;51342;55.250;37.668;2023-01-28T10:41:51;100312.50;;;-2.06;80.03
45369;BME280;51342;55.250;37.668;2023-01-28T10:44:36;100306.72;;;-2.05;79.91
45369;BME280;51342;55.250;37.668;2023-01-28T10:47:32;100307.81;;;-2.03;79.81
45369;BME280;51342;55.250;37.668;2023-01-28T10:50:06;100315.75;;;-2.00;79.79
45369;BME280;51342;55.250;37.668;2023-01-28T10:53:02;100309.44;;;-2.04;79.77
45369;BME280;51342;55.250;37.668;2023-01-28T10:55:49;100310.34;;;-2.03;79.88
45369;BME280;51342;55.250;37.668;2023-01-28T10:58:27;100304.53;;;-1.95;79.84
45369;BME280;51342;55.250;37.668;2023-01-28T11:01:00;100294.75;;;-1.92;79.92
45369;BME280;51342;55.250;37.668;2023-01-28T11:03:33;100302.53;;;-1.91;79.74
45369;BME280;51342;55.250;37.668;2023-01-28T11:06:27;100300.91;;;-1.97;79.44
45369;BME280;51342;55.250;37.668;2023-01-28T11:08:59;100291.09;;;-1.94;79.81
45369;BME280;51342;55.250;37.668;2023-01-28T11:11:30;100283.34;;;-1.96;79.48
45369;BME280;51342;55.250;37.668;2023-01-28T11:14:02;100291.63;;;-1.90;79.76
45369;BME280;51342;55.250;37.668;2023-01-28T11:16:33;100290.75;;;-1.90;79.41
45369;BME280;51342;55.250;37.668;2023-01-28T11:19:05;100284.41;;;-1.94;79.12
45369;BME280;51342;55.250;37.668;2023-01-28T11:21:36;100285.66;;;-1.90;79.50
45369;BME280;51342;55.250;37.668;2023-01-28T11:24:20;100287.47;;;-1.89;79.25
45369;BME280;51342;55.250;37.668;2023-01-28T11:26:54;100285.09;;;-1.88;79.20
45369;BME280;51342;55.250;37.668;2023-01-28T11:29:30;100278.22;;;-1.89;79.36
45369;BME280;51342;55.250;37.668;2023-01-28T11:32:01;100289.84;;;-1.91;79.19
45369;BME280;51342;55.250;37.668;2023-01-28T11:34:34;100279.00;;;-1.97;79.49
45369;BME280;51342;55.250;37.668;2023-01-28T11:37:13;100288.56;;;-1.94;79.51
45369;BME280;51342;55.250;37.668;2023-01-28T11:39:46;100281.16;;;-1.93;79.36
45369;BME280;51342;55.250;37.668;2023-01-28T11:42:20;100275.88;;;-1.94;79.13
45369;BME280;51342;55.250;37.668;2023-01-28T11:44:52;100275.72;;;-1.96;79.37
45369;BME280;51342;55.250;37.668;2023-01-28T11:47:34;100273.19;;;-1.96;79.05
45369;BME280;51342;55.250;37.668;2023-01-28T11:56:30;100261.06;;;-2.05;79.04
45369;BME280;51342;55.250;37.668;2023-01-28T12:02:06;100266.16;;;-2.05;79.14
45369;BME280;51342;55.250;37.668;2023-01-28T12:07:46;100259.66;;;-2.18;78.95
45369;BME280;51342;55.250;37.668;2023-01-28T12:21:25;100248.81;;;-2.09;79.19
45369;BME280;51342;55.250;37.668;2023-01-28T12:29:43;100237.19;;;-2.07;79.08
45369;BME280;51342;55.250;37.668;2023-01-28T12:42:53;100223.59;;;-2.01;78.80
45369;BME280;51342;55.250;37.668;2023-01-28T12:45:32;100216.91;;;-2.07;78.78
45369;BME280;51342;55.250;37.668;2023-01-28T12:48:15;100221.63;;;-2.10;79.07
45369;BME280;51342;55.250;37.668;2023-01-28T12:51:26;100223.84;;;-2.21;78.82
45369;BME280;51342;55.250;37.668;2023-01-28T12:54:13;100223.44;;;-2.17;79.19
45369;BME280;51342;55.250;37.668;2023-01-28T12:56:50;100224.19;;;-2.18;79.15
45369;BME280;51342;55.250;37.668;2023-01-28T12:59:38;100226.19;;;-2.22;79.08
45369;BME280;51342;55.250;37.668;2023-01-28T13:05:13;100224.91;;;-2.19;79.10
45369;BME280;51342;55.250;37.668;2023-01-28T13:07:54;100229.63;;;-2.15;79.01
45369;BME280;51342;55.250;37.668;2023-01-28T13:10:39;100224.72;;;-2.13;79.06
45369;BME280;51342;55.250;37.668;2023-01-28T13:15:53;100219.47;;;-2.15;79.13
45369;BME280;51342;55.250;37.668;2023-01-28T13:18:43;100229.47;;;-2.23;79.08
45369;BME280;51342;55.250;37.668;2023-01-28T13:26:44;100220.22;;;-2.23;79.00
45369;BME280;51342;55.250;37.668;2023-01-28T13:31:57;100218.06;;;-2.20;79.22
45369;BME280;51342;55.250;37.668;2023-01-28T13:34:41;100209.53;;;-2.20;79.13
45369;BME280;51342;55.250;37.668;2023-01-28T13:42:35;100214.78;;;-2.19;79.18
45369;BME280;51342;55.250;37.668;2023-01-28T13:48:22;100210.97;;;-2.22;79.08
45369;BME280;51342;55.250;37.668;2023-01-28T13:50:58;100203.38;;;-2.22;79.00
45369;BME280;51342;55.250;37.668;2023-01-28T13:53:46;100210.81;;;-2.24;78.98
45369;BME280;51342;55.250;37.668;2023-01-28T13:56:21;100202.69;;;-2.21;79.01
45369;BME280;51342;55.250;37.668;2023-01-28T14:02:19;100194.91;;;-2.30;79.14
45369;BME280;51342;55.250;37.668;2023-01-28T14:10:39;100193.66;;;-2.26;79.21
45369;BME280;51342;55.250;37.668;2023-01-28T14:13:33;100186.41;;;-2.30;79.08
45369;BME280;51342;55.250;37.668;2023-01-28T14:19:00;100194.00;;;-2.30;79.29
45369;BME280;51342;55.250;37.668;2023-01-28T14:21:33;100184.78;;;-2.30;79.38
45369;BME280;51342;55.250;37.668;2023-01-28T14:24:13;100186.41;;;-2.30;78.78
45369;BME280;51342;55.250;37.668;2023-01-28T14:32:30;100181.53;;;-2.36;79.38
45369;BME280;51342;55.250;37.668;2023-01-28T14:35:06;100189.47;;;-2.33;79.09
45369;BME280;51342;55.250;37.668;2023-01-28T14:37:39;100193.84;;;-2.32;79.44
45369;BME280;51342;55.250;37.668;2023-01-28T14:40:14;100186.25;;;-2.32;79.31
45369;BME280;51342;55.250;37.668;2023-01-28T14:42:49;100184.25;;;-2.34;79.35
45369;BME280;51342;55.250;37.668;2023-01-28T14:45:33;100189.84;;;-2.30;79.22
45369;BME280;51342;55.250;37.668;2023-01-28T14:51:23;100186.59;;;-2.36;79.14
45369;BME280;51342;55.250;37.668;2023-01-28T14:59:52;100178.44;;;-2.33;79.29
45369;BME280;51342;55.250;37.668;2023-01-28T15:02:27;100172.47;;;-2.34;79.33
45369;BME280;51342;55.250;37.668;2023-01-28T15:05:10;100177.53;;;-2.34;79.28
45369;BME280;51342;55.250;37.668;2023-01-28T15:07:46;100174.47;;;-2.31;79.18
45369;BME280;51342;55.250;37.668;2023-01-28T15:10:35;100175.38;;;-2.31;79.29
45369;BME280;51342;55.250;37.668;2023-01-28T15:13:10;100172.47;;;-2.34;79.13
45369;BME280;51342;55.250;37.668;2023-01-28T15:15:47;100171.56;;;-2.34;79.45
45369;BME280;51342;55.250;37.668;2023-01-28T15:18:31;100175.91;;;-2.33;79.11
45369;BME280;51342;55.250;37.668;2023-01-28T15:21:02;100167.78;;;-2.31;79.29
45369;BME280;51342;55.250;37.668;2023-01-28T15:23:41;100167.78;;;-2.31;79.31
45369;BME280;51342;55.250;37.668;2023-01-28T15:26:19;100164.13;;;-2.33;79.07
45369;BME280;51342;55.250;37.668;2023-01-28T15:28:52;100160.16;;;-2.31;79.31